createdAt,value
2024-05-09T00:00:06.875Z,99651.13
2024-05-09T00:02:56.762Z,99610.56
2024-05-09T00:05:46.869Z,99646.91
2024-05-09T00:08:33.593Z,99642.41
2024-05-09T00:11:20.731Z,99640.34
2024-05-09T00:14:07.438Z,99639.44
2024-05-09T00:16:53.940Z,99622.50
2024-05-09T00:19:40.483Z,99621.75
2024-05-09T00:22:29.605Z,99638.06
2024-05-09T00:25:16.193Z,99616.97
2024-05-09T00:28:03.352Z,99582.97
2024-05-09T00:30:49.871Z,99642.25
2024-05-09T00:33:36.447Z,99650.28
2024-05-09T00:36:23.004Z,99641.88
2024-05-09T00:39:12.174Z,99640.25
2024-05-09T00:41:59.778Z,99650.75
2024-05-09T00:44:46.201Z,99647.28
2024-05-09T00:47:33.209Z,99651.25
2024-05-09T00:50:29.348Z,99652.78
2024-05-09T00:53:21.789Z,99642.50
2024-05-09T00:56:13.147Z,99650.94
2024-05-09T00:58:59.734Z,99643.31
2024-05-09T01:01:47.127Z,99638.31
2024-05-09T01:04:33.606Z,99629.06
2024-05-09T01:07:20.099Z,99637.16
2024-05-09T01:10:13.801Z,99644.88
2024-05-09T01:13:07.345Z,99608.81
2024-05-09T01:15:54.180Z,99646.00
2024-05-09T01:18:40.850Z,99644.69
2024-05-09T01:21:27.500Z,99629.75
2024-05-09T01:24:16.762Z,99637.63
2024-05-09T01:27:03.286Z,99628.47
2024-05-09T01:29:49.838Z,99618.13
2024-05-09T01:32:36.401Z,99623.44
2024-05-09T01:35:23.524Z,99615.38
2024-05-09T01:38:12.940Z,99633.88
2024-05-09T01:41:02.404Z,99631.59
2024-05-09T01:43:48.908Z,99632.59
2024-05-09T01:46:35.349Z,99626.34
2024-05-09T01:49:21.938Z,99627.84
2024-05-09T01:52:08.612Z,99621.13
2024-05-09T01:54:55.095Z,99617.81
2024-05-09T01:57:44.239Z,99613.44
2024-05-09T02:00:38.713Z,99597.97
2024-05-09T02:03:28.378Z,99614.78
2024-05-09T02:06:15.030Z,99603.19
2024-05-09T02:09:01.612Z,99623.19
2024-05-09T02:11:50.368Z,99621.69
2024-05-09T02:14:39.621Z,99623.19
2024-05-09T02:17:26.253Z,99622.50
2024-05-09T02:20:18.749Z,99570.00
2024-05-09T02:23:13.919Z,99602.50
2024-05-09T02:26:00.575Z,99616.81
2024-05-09T02:28:47.074Z,99603.03
2024-05-09T02:31:36.221Z,99592.25
2024-05-09T02:34:23.036Z,99620.00
2024-05-09T02:37:09.609Z,99609.22
2024-05-09T02:39:53.418Z,99620.69
2024-05-09T02:42:39.817Z,99602.00
2024-05-09T02:45:25.008Z,99623.19
2024-05-09T02:48:15.993Z,99621.94
2024-05-09T02:51:01.858Z,99617.09
2024-05-09T02:53:48.346Z,99626.88
2024-05-09T02:56:32.154Z,99623.72
2024-05-09T02:59:18.989Z,99635.63
2024-05-09T03:02:02.929Z,99635.31
2024-05-09T03:04:52.072Z,99637.66
2024-05-09T03:07:35.953Z,99640.31
2024-05-09T03:10:28.181Z,99643.38
2024-05-09T03:13:16.076Z,99633.97
2024-05-09T03:16:03.153Z,99625.22
2024-05-09T03:18:47.062Z,99635.66
2024-05-09T03:21:36.186Z,99634.47
2024-05-09T03:24:19.994Z,99640.00
2024-05-09T03:27:06.618Z,99644.72
2024-05-09T03:29:50.391Z,99626.56
2024-05-09T03:32:37.074Z,99630.78
2024-05-09T03:35:20.922Z,99641.38
2024-05-09T03:38:10.242Z,99642.03
2024-05-09T03:40:56.820Z,99589.56
2024-05-09T03:43:43.367Z,99638.69
2024-05-09T03:46:29.769Z,99580.66
2024-05-09T03:49:13.744Z,99654.13
2024-05-09T03:52:05.025Z,99654.66
2024-05-09T03:54:51.499Z,99635.91
2024-05-09T03:57:38.028Z,99638.06
2024-05-09T04:00:35.632Z,99652.16
2024-05-09T04:03:25.717Z,99657.69
2024-05-09T04:06:09.602Z,99669.97
2024-05-09T04:08:56.230Z,99662.34
2024-05-09T04:11:42.723Z,99664.25
2024-05-09T04:14:29.267Z,99667.91
2024-05-09T04:17:15.755Z,99662.22
2024-05-09T04:20:00.085Z,99655.84
2024-05-09T04:22:46.590Z,99680.06
2024-05-09T04:25:31.672Z,99681.22
2024-05-09T04:28:23.876Z,99680.41
2024-05-09T04:31:07.580Z,99662.88
2024-05-09T04:33:54.351Z,99675.69
2024-05-09T04:36:40.276Z,99669.97
2024-05-09T04:39:28.100Z,99680.00
2024-05-09T04:42:11.812Z,99677.38
2024-05-09T04:45:00.979Z,99679.38
2024-05-09T04:47:44.856Z,99666.38
2024-05-09T04:50:36.899Z,99674.81
2024-05-09T04:53:25.468Z,99665.56
2024-05-09T04:56:09.385Z,99627.38
2024-05-09T04:58:55.939Z,99676.13
2024-05-09T05:01:42.412Z,99666.72
2024-05-09T05:04:29.923Z,99669.34
2024-05-09T05:07:13.701Z,99685.06
2024-05-09T05:10:00.302Z,99681.84
2024-05-09T05:13:02.759Z,99666.72
2024-05-09T05:15:49.551Z,99681.91
2024-05-09T05:18:38.806Z,99676.19
2024-05-09T05:21:22.822Z,99606.03
2024-05-09T05:24:09.662Z,99681.19
2024-05-09T05:26:53.492Z,99670.06
2024-05-09T05:29:39.976Z,99676.53
2024-05-09T05:32:23.965Z,99675.47
2024-05-09T05:35:13.401Z,99691.50
2024-05-09T05:37:57.292Z,99675.66
2024-05-09T05:40:44.059Z,99674.34
2024-05-09T05:43:29.757Z,99687.28
2024-05-09T05:46:16.231Z,99691.19
2024-05-09T05:49:00.715Z,99695.88
2024-05-09T05:51:50.034Z,99667.59
2024-05-09T05:54:33.773Z,99692.81
2024-05-09T05:57:20.229Z,99658.53
2024-05-09T06:00:09.447Z,99688.78
2024-05-09T06:02:56.498Z,99657.69
2024-05-09T06:05:40.957Z,99690.81
2024-05-09T06:08:30.694Z,99664.56
2024-05-09T06:11:14.607Z,99690.13
2024-05-09T06:14:02.110Z,99694.19
2024-05-09T06:16:46.271Z,99675.69
2024-05-09T06:19:33.341Z,99684.44
2024-05-09T06:22:17.237Z,99668.63
2024-05-09T06:25:06.862Z,99694.66
2024-05-09T06:27:50.705Z,99686.59
2024-05-09T06:30:40.700Z,99688.91
2024-05-09T06:33:26.544Z,99699.22
2024-05-09T06:36:13.834Z,99700.41
2024-05-09T06:39:00.280Z,99687.09
2024-05-09T06:41:46.752Z,99673.34
2024-05-09T06:44:33.293Z,99696.53
2024-05-09T06:47:17.223Z,99647.59
2024-05-09T06:50:04.970Z,99698.22
2024-05-09T06:52:52.007Z,99700.25
2024-05-09T06:55:39.707Z,99708.16
2024-05-09T06:58:26.136Z,99703.13
2024-05-09T07:01:12.700Z,99649.09
2024-05-09T07:03:57.022Z,99671.53
2024-05-09T07:06:43.450Z,99677.44
2024-05-09T07:09:27.170Z,99686.78
2024-05-09T07:12:13.693Z,99695.78
2024-05-09T07:15:00.391Z,99692.16
2024-05-09T07:17:46.967Z,99693.84
2024-05-09T07:20:34.627Z,99692.97
2024-05-09T07:23:22.051Z,99697.97
2024-05-09T07:26:05.968Z,99622.19
2024-05-09T07:28:52.562Z,99702.09
2024-05-09T07:31:38.960Z,99691.06
2024-05-09T07:34:25.602Z,99694.75
2024-05-09T07:37:12.869Z,99687.75
2024-05-09T07:39:59.322Z,99682.19
2024-05-09T07:42:43.082Z,99683.84
2024-05-09T07:45:45.701Z,99658.03
2024-05-09T07:54:14.785Z,99692.09
2024-05-09T07:56:58.864Z,99698.31
2024-05-09T07:59:45.375Z,99698.97
2024-05-09T08:02:29.241Z,99693.75
2024-05-09T08:05:18.780Z,99685.31
2024-05-09T08:08:05.315Z,99702.88
2024-05-09T08:10:49.157Z,99682.91
2024-05-09T08:13:35.630Z,99718.25
2024-05-09T08:16:19.622Z,99720.03
2024-05-09T08:19:06.305Z,99727.78
2024-05-09T08:21:52.869Z,99715.16
2024-05-09T08:24:39.269Z,99709.81
2024-05-09T08:27:23.096Z,99731.72
2024-05-09T08:30:18.799Z,99725.13
2024-05-09T08:33:08.920Z,99733.84
2024-05-09T08:35:55.338Z,99730.00
2024-05-09T08:38:41.793Z,99709.59
2024-05-09T08:41:28.321Z,99725.75
2024-05-09T08:44:12.201Z,99726.94
2024-05-09T08:46:59.110Z,99717.84
2024-05-09T08:49:42.996Z,99703.41
2024-05-09T08:52:29.830Z,99734.03
2024-05-09T08:55:16.474Z,99714.03
2024-05-09T08:58:06.483Z,99714.19
2024-05-09T09:00:50.429Z,99658.84
2024-05-09T09:03:40.548Z,99707.31
2024-05-09T09:06:25.903Z,99715.03
2024-05-09T09:09:13.049Z,99661.19
2024-05-09T09:11:59.539Z,99643.56
2024-05-09T09:14:45.970Z,99696.56
2024-05-09T09:17:29.781Z,99699.06
2024-05-09T09:20:22.982Z,99714.72
2024-05-09T09:23:10.418Z,99672.84
2024-05-09T09:25:56.880Z,99723.91
2024-05-09T09:28:44.931Z,99731.19
2024-05-09T09:31:31.448Z,99678.69
2024-05-09T09:34:18.117Z,99727.50
2024-05-09T09:37:05.584Z,99713.88
2024-05-09T09:39:53.040Z,99727.47
2024-05-09T09:42:38.602Z,99728.31
2024-05-09T09:45:27.855Z,99723.09
2024-05-09T09:48:15.043Z,99685.88
2024-05-09T09:51:03.266Z,99720.47
2024-05-09T09:53:51.988Z,99676.56
2024-05-09T09:56:39.140Z,99715.38
2024-05-09T09:59:25.916Z,99718.69
2024-05-09T10:02:14.076Z,99712.47
2024-05-09T10:05:00.990Z,99699.81
2024-05-09T10:07:48.608Z,99706.91
2024-05-09T10:10:36.609Z,99711.59
2024-05-09T10:13:21.033Z,99703.91
2024-05-09T10:16:12.641Z,99703.41
2024-05-09T10:18:59.466Z,99710.78
2024-05-09T10:21:49.832Z,99695.81
2024-05-09T10:24:48.610Z,99693.94
2024-05-09T10:27:35.322Z,99693.13
2024-05-09T10:30:29.760Z,99699.50
2024-05-09T10:33:23.211Z,99682.00
2024-05-09T10:36:14.373Z,99706.00
2024-05-09T10:39:02.438Z,99699.94
2024-05-09T10:41:46.203Z,99680.03
2024-05-09T10:44:32.646Z,99702.28
2024-05-09T10:47:16.380Z,99682.66
2024-05-09T10:50:04.877Z,99698.13
2024-05-09T10:52:53.336Z,99705.13
2024-05-09T10:55:39.692Z,99703.59
2024-05-09T10:58:24.116Z,99698.03
2024-05-09T11:01:11.827Z,99698.16
2024-05-09T11:03:57.302Z,99687.38
2024-05-09T11:06:28.923Z,99697.00
2024-05-09T11:09:00.827Z,99690.06
2024-05-09T11:11:32.661Z,99693.38
2024-05-09T11:14:12.035Z,99702.63
2024-05-09T11:16:43.589Z,99700.72
2024-05-09T11:19:14.112Z,99698.22
2024-05-09T11:21:45.915Z,99704.56
2024-05-09T11:24:17.597Z,99680.84
2024-05-09T11:26:49.064Z,99700.94
2024-05-09T11:29:19.560Z,99712.31
2024-05-09T11:31:51.809Z,99692.72
2024-05-09T11:34:21.069Z,99704.00
2024-05-09T11:36:52.818Z,99690.03
2024-05-09T11:39:24.969Z,99681.63
2024-05-09T11:41:56.471Z,99686.63
2024-05-09T11:44:25.371Z,99697.97
2024-05-09T11:46:57.264Z,99676.22
2024-05-09T11:49:27.109Z,99682.31
2024-05-09T11:51:59.053Z,99685.38
2024-05-09T11:54:30.690Z,99700.88
2024-05-09T11:57:02.848Z,99677.28
2024-05-09T11:59:31.702Z,99688.09
2024-05-09T12:02:03.271Z,99691.34
2024-05-09T12:04:32.335Z,99695.53
2024-05-09T12:07:04.060Z,99700.03
2024-05-09T12:09:35.630Z,99695.44
2024-05-09T12:12:08.478Z,99683.53
2024-05-09T12:14:37.183Z,99679.63
2024-05-09T12:17:08.691Z,99676.38
2024-05-09T12:19:37.725Z,99681.38
2024-05-09T12:22:09.332Z,99685.91
2024-05-09T12:24:40.902Z,99688.38
2024-05-09T12:27:27.408Z,99684.47
2024-05-09T12:30:14.252Z,99677.44
2024-05-09T12:33:03.560Z,99678.84
2024-05-09T12:35:50.136Z,99686.53
2024-05-09T12:38:37.952Z,99685.47
2024-05-09T12:41:28.498Z,99651.31
2024-05-09T12:44:12.254Z,99654.88
2024-05-09T12:46:58.724Z,99661.44
2024-05-09T12:49:42.639Z,99668.06
2024-05-09T12:52:28.890Z,99666.97
2024-05-09T12:55:12.942Z,99670.34
2024-05-09T12:58:02.528Z,99650.69
2024-05-09T13:00:47.004Z,99663.69
2024-05-09T13:03:34.466Z,99657.09
2024-05-09T13:06:18.537Z,99654.34
2024-05-09T13:09:05.005Z,99635.97
2024-05-09T13:11:48.864Z,99647.72
2024-05-09T13:14:38.009Z,99638.75
2024-05-09T13:17:24.771Z,99637.81
2024-05-09T13:20:14.928Z,99633.94
2024-05-09T13:23:07.900Z,99633.63
2024-05-09T13:25:55.031Z,99607.81
2024-05-09T13:28:38.777Z,99593.47
2024-05-09T13:31:27.914Z,99639.34
2024-05-09T13:34:11.901Z,99636.03
2024-05-09T13:36:58.335Z,99638.47
2024-05-09T13:39:42.543Z,99607.50
2024-05-09T13:42:29.133Z,99625.28
2024-05-09T13:44:57.801Z,99617.94
2024-05-09T13:47:47.270Z,99601.94
2024-05-09T13:50:35.143Z,99624.38
2024-05-09T13:53:24.173Z,99643.00
2024-05-09T13:56:08.927Z,99626.66
2024-05-09T13:58:55.526Z,99630.81
2024-05-09T14:01:39.776Z,99634.13
2024-05-09T14:04:29.138Z,99636.59
2024-05-09T14:07:13.266Z,99595.63
2024-05-09T14:09:59.553Z,99633.44
2024-05-09T14:12:43.394Z,99621.00
2024-05-09T14:15:29.989Z,99625.72
2024-05-09T14:18:14.736Z,99637.47
2024-05-09T14:21:04.887Z,99603.06
2024-05-09T14:23:48.751Z,99628.31
2024-05-09T14:26:35.236Z,99637.38
2024-05-09T14:29:18.986Z,99604.97
2024-05-09T14:32:05.570Z,99638.19
2024-05-09T14:34:49.540Z,99619.13
2024-05-09T14:37:39.831Z,99625.94
2024-05-09T14:43:13.975Z,99625.16
2024-05-09T14:45:58.441Z,99618.19
2024-05-09T14:48:45.515Z,99631.47
2024-05-09T14:51:29.475Z,99623.78
2024-05-09T14:54:18.587Z,99626.59
2024-05-09T14:57:02.947Z,99644.31
2024-05-09T14:59:49.831Z,99634.31
2024-05-09T15:02:34.477Z,99633.16
2024-05-09T15:05:21.131Z,99619.75
2024-05-09T15:08:07.533Z,99633.63
2024-05-09T15:10:56.926Z,99635.53
2024-05-09T15:13:40.810Z,99625.16
2024-05-09T15:16:27.610Z,99610.78
2024-05-09T15:19:11.770Z,99630.03
2024-05-09T15:21:58.086Z,99623.56
2024-05-09T15:24:42.280Z,99632.06
2024-05-09T15:27:31.127Z,99625.25
2024-05-09T15:30:18.135Z,99622.25
2024-05-09T15:33:08.165Z,99620.09
2024-05-09T15:35:54.750Z,99632.06
2024-05-09T15:38:39.408Z,99615.56
2024-05-09T15:41:25.806Z,99636.81
2024-05-09T15:44:12.670Z,99631.78
2024-05-09T15:46:59.327Z,99612.19
2024-05-09T15:49:43.437Z,99634.31
2024-05-09T15:52:29.855Z,99634.91
2024-05-09T15:55:14.366Z,99631.94
2024-05-09T15:58:00.873Z,99643.06
2024-05-09T16:00:52.128Z,99639.41
2024-05-09T16:03:36.401Z,99634.59
2024-05-09T16:06:22.660Z,99650.16
2024-05-09T16:09:06.792Z,99653.84
2024-05-09T16:11:52.999Z,99657.75
2024-05-09T16:14:36.722Z,99635.38
2024-05-09T16:17:26.064Z,99649.84
2024-05-09T16:20:15.154Z,99640.84
2024-05-09T16:23:04.744Z,99627.41
2024-05-09T16:25:48.838Z,99652.75
2024-05-09T16:28:36.914Z,99654.44
2024-05-09T16:31:20.802Z,99651.75
2024-05-09T16:34:10.939Z,99654.00
2024-05-09T16:36:54.836Z,99654.72
2024-05-09T16:39:41.394Z,99647.84
2024-05-09T16:42:25.200Z,99661.16
2024-05-09T16:45:12.460Z,99642.56
2024-05-09T16:47:57.286Z,99657.63
2024-05-09T16:50:46.471Z,99657.09
2024-05-09T16:53:31.347Z,99657.94
2024-05-09T16:56:17.878Z,99667.19
2024-05-09T16:59:01.923Z,99671.19
2024-05-09T17:01:48.550Z,99663.16
2024-05-09T17:04:32.708Z,99606.00
2024-05-09T17:07:22.031Z,99668.00
2024-05-09T17:10:10.043Z,99680.66
2024-05-09T17:12:58.764Z,99679.53
2024-05-09T17:15:45.498Z,99681.53
2024-05-09T17:18:31.964Z,99691.31
2024-05-09T17:21:18.632Z,99688.31
2024-05-09T17:24:05.270Z,99681.03
2024-05-09T17:26:52.989Z,99693.31
2024-05-09T17:29:37.539Z,99686.28
2024-05-09T17:32:24.063Z,99699.94
2024-05-09T17:35:08.171Z,99697.34
2024-05-09T17:37:55.100Z,99688.22
2024-05-09T17:40:41.698Z,99698.53
2024-05-09T17:43:28.903Z,99701.06
2024-05-09T17:46:13.090Z,99709.13
2024-05-09T17:49:01.031Z,99704.94
2024-05-09T17:51:51.949Z,99686.75
2024-05-09T17:54:38.857Z,99687.66
2024-05-09T17:57:26.522Z,99717.75
2024-05-09T18:00:17.419Z,99711.44
2024-05-09T18:03:05.296Z,99651.06
2024-05-09T18:05:51.970Z,99717.91
2024-05-09T18:08:35.899Z,99717.41
2024-05-09T18:11:22.419Z,99701.53
2024-05-09T18:14:09.201Z,99724.16
2024-05-09T18:16:55.757Z,99698.25
2024-05-09T18:19:39.677Z,99729.47
2024-05-09T18:22:26.673Z,99747.59
2024-05-09T18:25:10.881Z,99746.88
2024-05-09T18:28:00.257Z,99747.38
2024-05-09T18:30:46.905Z,99743.66
2024-05-09T18:33:33.787Z,99753.75
2024-05-09T18:36:20.577Z,99749.56
2024-05-09T18:39:05.378Z,99748.22
2024-05-09T18:41:51.973Z,99764.75
2024-05-09T18:44:35.718Z,99772.06
2024-05-09T18:47:24.928Z,99760.06
2024-05-09T18:50:12.076Z,99763.69
2024-05-09T18:53:03.914Z,99790.09
2024-05-09T18:55:47.662Z,99790.63
2024-05-09T18:58:19.645Z,99794.56
2024-05-09T19:00:50.506Z,99782.31
2024-05-09T19:03:26.803Z,99790.97
2024-05-09T19:05:56.242Z,99752.63
2024-05-09T19:08:28.584Z,99791.44
2024-05-09T19:10:58.472Z,99789.09
2024-05-09T19:13:30.118Z,99807.69
2024-05-09T19:15:59.033Z,99798.72
2024-05-09T19:18:33.905Z,99780.34
2024-05-09T19:21:02.920Z,99776.59
2024-05-09T19:23:38.261Z,99818.97
2024-05-09T19:26:10.113Z,99821.25
2024-05-09T19:28:42.038Z,99748.00
2024-05-09T19:31:11.079Z,99823.84
2024-05-09T19:33:45.458Z,99827.75
2024-05-09T19:36:14.459Z,99826.84
2024-05-09T19:38:46.110Z,99833.13
2024-05-09T19:41:15.234Z,99837.47
2024-05-09T19:43:47.047Z,99839.69
2024-05-09T19:46:16.481Z,99837.69
2024-05-09T19:48:51.114Z,99821.34
2024-05-09T19:51:20.116Z,99838.88
2024-05-09T19:53:52.348Z,99835.00
2024-05-09T19:56:21.357Z,99834.34
2024-05-09T19:58:52.763Z,99839.78
2024-05-09T20:01:21.541Z,99838.38
2024-05-09T20:03:59.236Z,99853.88
2024-05-09T20:06:29.659Z,99807.69
2024-05-09T20:09:01.126Z,99845.88
2024-05-09T20:11:44.917Z,99851.25
2024-05-09T20:14:31.473Z,99841.56
2024-05-09T20:17:15.262Z,99850.09
2024-05-09T20:20:07.333Z,99849.41
2024-05-09T20:22:51.182Z,99829.41
2024-05-09T20:25:37.590Z,99836.44
2024-05-09T20:28:21.398Z,99857.38
2024-05-09T20:31:08.646Z,99850.41
2024-05-09T20:33:52.438Z,99843.75
2024-05-09T20:36:41.818Z,99850.09
2024-05-09T20:39:26.284Z,99844.03
2024-05-09T20:42:12.835Z,99860.16
2024-05-09T20:44:56.602Z,99854.03
2024-05-09T20:47:43.201Z,99852.03
2024-05-09T20:50:36.062Z,99860.16
2024-05-09T20:53:29.180Z,99863.38
2024-05-09T20:56:13.037Z,99861.50
2024-05-09T20:59:00.464Z,99861.13
2024-05-09T21:01:48.660Z,99858.88
2024-05-09T21:04:35.625Z,99849.84
2024-05-09T21:07:19.778Z,99837.91
2024-05-09T21:10:15.628Z,99853.75
2024-05-09T21:13:04.199Z,99854.47
2024-05-09T21:15:51.257Z,99846.63
2024-05-09T21:18:35.295Z,99823.72
2024-05-09T21:21:21.934Z,99845.81
2024-05-09T21:24:06.258Z,99847.03
2024-05-09T21:26:55.543Z,99853.75
2024-05-09T21:29:39.446Z,99858.53
2024-05-09T21:32:26.179Z,99863.78
2024-05-09T21:35:12.856Z,99849.50
2024-05-09T21:37:56.791Z,99863.47
2024-05-09T21:40:43.573Z,99867.09
2024-05-09T21:43:31.709Z,99869.88
2024-05-09T21:46:18.479Z,99843.50
2024-05-09T21:49:03.431Z,99856.50
2024-05-09T21:51:50.135Z,99860.78
2024-05-09T21:54:34.113Z,99874.19
2024-05-09T21:57:21.890Z,99869.03
2024-05-09T22:00:27.920Z,99833.75
2024-05-09T22:03:21.081Z,99866.81
2024-05-09T22:06:05.229Z,99860.59
2024-05-09T22:08:51.580Z,99876.06
2024-05-09T22:11:35.520Z,99863.66
2024-05-09T22:14:22.501Z,99866.59
2024-05-09T22:17:09.118Z,99852.22
2024-05-09T22:19:56.373Z,99868.13
2024-05-09T22:22:41.925Z,99867.19
2024-05-09T22:25:30.689Z,99860.41
2024-05-09T22:28:16.096Z,99860.81
2024-05-09T22:31:02.967Z,99842.91
2024-05-09T22:33:49.833Z,99834.75
2024-05-09T22:36:36.530Z,99857.88
2024-05-09T22:39:20.828Z,99854.31
2024-05-09T22:42:08.087Z,99847.47
2024-05-09T22:44:51.987Z,99819.41
2024-05-09T22:47:38.656Z,99824.34
2024-05-09T22:50:27.073Z,99814.31
2024-05-09T22:53:18.880Z,99843.59
2024-05-09T22:56:02.818Z,99826.69
2024-05-09T22:58:49.403Z,99839.41
2024-05-09T23:01:33.465Z,99826.03
2024-05-09T23:04:20.038Z,99837.28
2024-05-09T23:07:07.825Z,99823.03
2024-05-09T23:09:54.562Z,99835.47
2024-05-09T23:12:41.739Z,99812.19
2024-05-09T23:15:25.806Z,99829.25
2024-05-09T23:18:12.352Z,99809.63
2024-05-09T23:20:56.582Z,99830.25
2024-05-09T23:23:45.919Z,99784.28
2024-05-09T23:26:29.829Z,99828.59
2024-05-09T23:29:16.383Z,99812.63
2024-05-09T23:32:00.190Z,99808.75
2024-05-09T23:34:46.755Z,99807.47
2024-05-09T23:37:30.686Z,99816.28
2024-05-09T23:40:23.236Z,99784.09
2024-05-09T23:43:08.518Z,99807.56
2024-05-09T23:45:55.262Z,99798.22
2024-05-09T23:48:39.180Z,99750.66
2024-05-09T23:51:25.820Z,99811.97
2024-05-09T23:54:09.612Z,99808.72
2024-05-09T23:56:58.736Z,99810.13
2024-05-09T23:59:42.530Z,99808.38
